createdAt,value
2022-08-25T00:00:06.727Z,18.73
2022-08-25T00:00:42.518Z,18.95
2022-08-25T00:01:23.117Z,18.90
2022-08-25T00:02:04.729Z,19.07
2022-08-25T00:02:39.420Z,19.08
2022-08-25T00:03:12.974Z,19.13
2022-08-25T00:03:46.717Z,19.11
2022-08-25T00:04:20.939Z,19.16
2022-08-25T00:04:53.670Z,19.21
2022-08-25T00:05:29.387Z,19.19
2022-08-25T00:06:05.459Z,19.25
2022-08-25T00:06:41.726Z,19.25
2022-08-25T00:07:16.009Z,19.25
2022-08-25T00:07:53.718Z,19.26
2022-08-25T00:08:29.119Z,19.09
2022-08-25T00:09:02.518Z,19.11
2022-08-25T00:09:36.508Z,18.93
2022-08-25T00:10:10.317Z,18.89
2022-08-25T00:10:45.521Z,18.78
2022-08-25T00:11:35.759Z,18.96
2022-08-25T00:12:07.255Z,19.00
2022-08-25T00:12:38.720Z,19.02
2022-08-25T00:13:12.522Z,19.00
2022-08-25T00:13:47.197Z,19.07
2022-08-25T00:14:20.226Z,18.99
2022-08-25T00:14:54.518Z,19.03
2022-08-25T00:15:26.560Z,19.01
2022-08-25T00:15:59.918Z,19.02
2022-08-25T00:16:32.529Z,19.07
2022-08-25T00:17:07.527Z,18.95
2022-08-25T00:17:40.539Z,19.01
2022-08-25T00:18:19.676Z,19.06
2022-08-25T00:18:56.450Z,19.01
2022-08-25T00:19:30.193Z,19.04
2022-08-25T00:20:01.661Z,18.81
2022-08-25T00:20:33.096Z,18.73
2022-08-25T00:21:07.118Z,18.84
2022-08-25T00:21:41.900Z,18.87
2022-08-25T00:22:13.921Z,18.81
2022-08-25T00:22:47.642Z,18.78
2022-08-25T00:23:21.354Z,18.89
2022-08-25T00:23:54.117Z,18.93
2022-08-25T00:24:26.870Z,18.81
2022-08-25T00:25:00.317Z,18.79
2022-08-25T00:25:32.541Z,18.69
2022-08-25T00:26:04.602Z,18.74
2022-08-25T00:26:40.518Z,18.88
2022-08-25T00:27:15.692Z,18.79
2022-08-25T00:27:51.722Z,18.88
2022-08-25T00:28:24.085Z,18.90
2022-08-25T00:29:01.327Z,18.68
2022-08-25T00:29:40.117Z,18.56
2022-08-25T00:30:16.518Z,18.62
2022-08-25T00:30:50.129Z,18.44
2022-08-25T00:31:37.857Z,18.57
2022-08-25T00:32:13.710Z,18.66
2022-08-25T00:32:55.466Z,18.77
2022-08-25T00:33:31.276Z,18.66
2022-08-25T00:34:05.118Z,18.61
2022-08-25T00:34:44.517Z,18.63
2022-08-25T00:35:19.390Z,18.72
2022-08-25T00:35:54.317Z,18.74
2022-08-25T00:36:29.929Z,18.60
2022-08-25T00:37:04.791Z,18.69
2022-08-25T00:37:39.216Z,18.79
2022-08-25T00:38:13.919Z,18.80
2022-08-25T00:38:47.717Z,18.82
2022-08-25T00:39:21.154Z,18.82
2022-08-25T00:39:56.656Z,18.84
2022-08-25T00:40:32.164Z,18.76
2022-08-25T00:41:08.329Z,18.86
2022-08-25T00:41:44.317Z,18.80
2022-08-25T00:42:22.521Z,18.75
2022-08-25T00:42:57.918Z,18.67
2022-08-25T00:43:53.789Z,18.52
2022-08-25T00:44:29.927Z,18.31
2022-08-25T00:45:06.919Z,18.27
2022-08-25T00:45:39.450Z,18.20
2022-08-25T00:46:12.168Z,18.22
2022-08-25T00:46:48.526Z,18.20
2022-08-25T00:47:20.724Z,18.16
2022-08-25T00:47:54.657Z,18.31
2022-08-25T00:48:32.520Z,18.39
2022-08-25T00:49:25.466Z,18.41
2022-08-25T00:49:58.921Z,18.28
2022-08-25T00:50:32.263Z,18.34
2022-08-25T00:51:05.483Z,18.43
2022-08-25T00:51:38.775Z,18.25
2022-08-25T00:52:28.526Z,18.31
2022-08-25T00:53:03.075Z,18.45
2022-08-25T00:53:37.319Z,18.23
2022-08-25T00:54:10.728Z,18.18
2022-08-25T00:54:44.769Z,18.31
2022-08-25T00:55:24.918Z,18.12
2022-08-25T00:55:59.028Z,18.17
2022-08-25T00:56:32.718Z,18.20
2022-08-25T00:57:07.976Z,18.15
2022-08-25T00:57:44.525Z,18.13
2022-08-25T00:58:26.908Z,18.06
2022-08-25T00:58:58.589Z,18.16
2022-08-25T00:59:31.910Z,18.24
2022-08-25T01:00:07.920Z,18.17
2022-08-25T01:00:45.318Z,17.96
2022-08-25T01:01:20.208Z,17.93
2022-08-25T01:01:55.237Z,18.00
2022-08-25T01:02:27.589Z,18.19
2022-08-25T01:03:04.173Z,18.15
2022-08-25T01:03:37.257Z,18.12
2022-08-25T01:04:11.398Z,18.02
2022-08-25T01:04:49.163Z,17.96
2022-08-25T01:05:22.118Z,17.93
2022-08-25T01:05:58.319Z,18.14
2022-08-25T01:06:34.519Z,18.18
2022-08-25T01:07:11.234Z,18.23
2022-08-25T01:07:50.217Z,18.30
2022-08-25T01:08:26.348Z,18.38
2022-08-25T01:09:00.588Z,18.29
2022-08-25T01:09:36.133Z,18.15
2022-08-25T01:10:12.133Z,18.21
2022-08-25T01:10:43.941Z,18.20
2022-08-25T01:11:15.578Z,18.02
2022-08-25T01:11:49.342Z,17.91
2022-08-25T01:12:23.317Z,17.89
2022-08-25T01:13:16.022Z,17.91
2022-08-25T01:13:53.719Z,17.84
2022-08-25T01:14:25.622Z,17.92
2022-08-25T01:14:58.317Z,17.79
2022-08-25T01:15:32.057Z,17.88
2022-08-25T01:16:07.454Z,18.03
2022-08-25T01:16:40.576Z,17.92
2022-08-25T01:17:12.333Z,17.91
2022-08-25T01:17:49.500Z,17.91
2022-08-25T01:18:22.519Z,17.86
2022-08-25T01:18:59.524Z,18.05
2022-08-25T01:19:35.561Z,18.16
2022-08-25T01:20:07.898Z,18.12
2022-08-25T01:20:43.310Z,18.05
2022-08-25T01:21:16.916Z,17.86
2022-08-25T01:21:53.515Z,17.84
2022-08-25T01:22:28.328Z,17.86
2022-08-25T01:23:01.008Z,17.81
2022-08-25T01:23:32.648Z,17.81
2022-08-25T01:24:05.517Z,17.79
2022-08-25T01:24:41.124Z,17.91
2022-08-25T01:25:18.024Z,17.86
2022-08-25T01:26:06.142Z,17.81
2022-08-25T01:26:37.647Z,17.63
2022-08-25T01:27:13.193Z,17.64
2022-08-25T01:27:45.065Z,17.66
2022-08-25T01:28:20.339Z,17.64
2022-08-25T01:29:13.319Z,17.59
2022-08-25T01:29:51.121Z,17.60
2022-08-25T01:30:26.719Z,17.55
2022-08-25T01:31:00.815Z,17.49
2022-08-25T01:31:33.055Z,17.54
2022-08-25T01:32:10.723Z,17.51
2022-08-25T01:32:47.923Z,17.57
2022-08-25T01:33:24.316Z,17.72
2022-08-25T01:33:58.994Z,17.81
2022-08-25T01:34:37.926Z,17.66
2022-08-25T01:35:12.917Z,17.74
2022-08-25T01:35:47.722Z,17.92
2022-08-25T01:36:22.917Z,17.92
2022-08-25T01:36:57.002Z,17.95
2022-08-25T01:37:29.918Z,17.90
2022-08-25T01:38:03.307Z,17.95
2022-08-25T01:38:37.917Z,18.08
2022-08-25T01:39:12.925Z,18.15
2022-08-25T01:39:47.380Z,18.21
2022-08-25T01:40:23.050Z,18.29
2022-08-25T01:40:57.717Z,18.31
2022-08-25T01:41:39.131Z,18.36
2022-08-25T01:42:19.750Z,18.40
2022-08-25T01:43:02.476Z,18.26
2022-08-25T01:43:39.570Z,18.35
2022-08-25T01:44:16.773Z,18.39
2022-08-25T01:44:51.728Z,18.45
2022-08-25T01:45:26.162Z,18.44
2022-08-25T01:46:00.733Z,18.47
2022-08-25T01:46:36.057Z,18.51
2022-08-25T01:47:12.717Z,18.56
2022-08-25T01:47:46.323Z,18.61
2022-08-25T01:48:21.715Z,18.65
2022-08-25T01:48:57.678Z,18.65
2022-08-25T01:49:31.918Z,18.57
2022-08-25T01:50:07.518Z,18.54
2022-08-25T01:50:43.722Z,18.43
2022-08-25T01:51:19.320Z,18.44
2022-08-25T01:51:56.717Z,18.23
2022-08-25T01:52:44.124Z,18.47
2022-08-25T01:53:34.325Z,18.62
2022-08-25T01:54:09.115Z,18.58
2022-08-25T01:54:44.916Z,18.55
2022-08-25T01:55:20.717Z,18.66
2022-08-25T01:55:57.989Z,18.68
2022-08-25T01:56:34.727Z,18.73
2022-08-25T01:57:10.517Z,18.74
2022-08-25T01:57:44.794Z,18.75
2022-08-25T01:58:21.320Z,18.78
2022-08-25T01:58:56.517Z,18.72
2022-08-25T01:59:31.117Z,18.77
2022-08-25T02:00:07.467Z,18.77
2022-08-25T02:00:47.517Z,18.72
2022-08-25T02:01:24.990Z,18.78
2022-08-25T02:02:00.939Z,18.81
2022-08-25T02:02:42.546Z,18.86
2022-08-25T02:03:18.813Z,18.86
2022-08-25T02:03:56.193Z,18.90
2022-08-25T02:04:34.349Z,18.90
2022-08-25T02:05:12.125Z,18.90
2022-08-25T02:05:48.231Z,18.90
2022-08-25T02:06:28.856Z,18.90
2022-08-25T02:07:06.916Z,18.80
2022-08-25T02:07:46.920Z,18.84
2022-08-25T02:08:24.923Z,18.88
2022-08-25T02:09:02.121Z,18.93
2022-08-25T02:09:33.730Z,18.65
2022-08-25T02:10:08.341Z,18.69
2022-08-25T02:10:42.717Z,18.77
2022-08-25T02:11:17.808Z,18.74
2022-08-25T02:11:52.317Z,18.72
2022-08-25T02:12:26.918Z,18.76
2022-08-25T02:13:01.317Z,18.66
2022-08-25T02:13:37.321Z,18.62
2022-08-25T02:14:09.777Z,18.63
2022-08-25T02:14:44.917Z,18.55
2022-08-25T02:15:19.073Z,18.62
2022-08-25T02:15:54.109Z,18.62
2022-08-25T02:16:28.839Z,18.70
2022-08-25T02:17:04.141Z,18.75
2022-08-25T02:17:38.717Z,18.76
2022-08-25T02:18:14.317Z,18.79
2022-08-25T02:18:50.532Z,18.80
2022-08-25T02:19:27.916Z,18.74
2022-08-25T02:20:02.520Z,18.75
2022-08-25T02:20:38.119Z,18.86
2022-08-25T02:21:14.478Z,18.87
2022-08-25T02:21:49.917Z,18.93
2022-08-25T02:22:26.728Z,18.97
2022-08-25T02:22:59.083Z,19.01
2022-08-25T02:23:30.568Z,19.00
2022-08-25T02:24:03.916Z,19.07
2022-08-25T02:24:36.745Z,18.96
2022-08-25T02:25:11.516Z,18.77
2022-08-25T02:25:44.229Z,18.86
2022-08-25T02:26:19.924Z,18.89
2022-08-25T02:26:53.916Z,18.96
2022-08-25T02:27:30.317Z,19.05
2022-08-25T02:28:03.176Z,19.00
2022-08-25T02:28:34.638Z,18.95
2022-08-25T02:29:09.316Z,18.94
2022-08-25T02:29:43.918Z,18.83
2022-08-25T02:30:20.132Z,18.90
2022-08-25T02:30:58.710Z,19.00
2022-08-25T02:31:36.717Z,18.95
2022-08-25T02:32:11.123Z,18.96
2022-08-25T02:32:45.518Z,18.98
2022-08-25T02:33:21.483Z,19.02
2022-08-25T02:33:56.325Z,19.06
2022-08-25T02:34:32.717Z,19.11
2022-08-25T02:35:07.369Z,19.19
2022-08-25T02:35:42.716Z,19.25
2022-08-25T02:36:14.933Z,19.36
2022-08-25T02:36:49.189Z,19.32
2022-08-25T02:37:25.999Z,19.36
2022-08-25T02:38:01.735Z,19.46
2022-08-25T02:38:36.715Z,19.45
2022-08-25T02:39:09.710Z,19.59
2022-08-25T02:39:43.716Z,19.56
2022-08-25T02:40:19.366Z,19.62
2022-08-25T02:40:55.117Z,19.61
2022-08-25T02:41:31.778Z,19.63
2022-08-25T02:42:06.515Z,19.68
2022-08-25T02:42:42.760Z,19.63
2022-08-25T02:43:17.525Z,19.54
2022-08-25T02:43:49.788Z,19.55
2022-08-25T02:44:23.536Z,19.60
2022-08-25T02:44:59.321Z,19.56
2022-08-25T02:45:33.361Z,19.59
2022-08-25T02:46:08.015Z,19.32
2022-08-25T02:46:41.695Z,19.35
2022-08-25T02:47:13.120Z,19.49
2022-08-25T02:47:44.717Z,19.54
2022-08-25T02:48:20.119Z,19.55
2022-08-25T02:48:55.116Z,19.56
2022-08-25T02:49:30.129Z,19.56
2022-08-25T02:50:03.491Z,19.59
2022-08-25T02:50:35.396Z,19.60
2022-08-25T02:51:09.234Z,19.57
2022-08-25T02:51:54.552Z,19.51
2022-08-25T02:52:26.100Z,19.56
2022-08-25T02:53:00.518Z,19.58
2022-08-25T02:53:33.345Z,19.63
2022-08-25T02:54:05.055Z,19.62
2022-08-25T02:54:39.595Z,19.62
2022-08-25T02:55:15.317Z,19.65
2022-08-25T02:55:47.907Z,19.74
2022-08-25T02:56:20.031Z,19.72
2022-08-25T02:56:54.517Z,19.70
2022-08-25T02:57:30.920Z,19.76
2022-08-25T02:58:04.683Z,19.70
2022-08-25T02:58:41.316Z,19.71
2022-08-25T02:59:17.116Z,19.80
2022-08-25T02:59:53.116Z,19.84
2022-08-25T03:00:28.316Z,19.80
2022-08-25T03:01:03.371Z,19.77
2022-08-25T03:01:37.303Z,19.79
2022-08-25T03:02:11.517Z,19.75
2022-08-25T03:02:46.516Z,19.76
2022-08-25T03:03:21.516Z,19.71
2022-08-25T03:03:57.082Z,19.68
2022-08-25T03:04:36.146Z,19.71
2022-08-25T03:05:09.419Z,19.73
2022-08-25T03:05:43.603Z,19.77
2022-08-25T03:06:16.820Z,19.80
2022-08-25T03:06:51.318Z,19.76
2022-08-25T03:07:25.118Z,19.70
2022-08-25T03:08:01.390Z,19.75
2022-08-25T03:08:36.915Z,19.73
2022-08-25T03:09:11.316Z,19.59
2022-08-25T03:09:46.339Z,19.61
2022-08-25T03:10:23.118Z,19.61
2022-08-25T03:10:56.446Z,19.64
2022-08-25T03:11:32.916Z,19.70
2022-08-25T03:12:06.922Z,19.71
2022-08-25T03:12:43.602Z,19.77
2022-08-25T03:13:17.105Z,19.85
2022-08-25T03:13:52.014Z,19.86
2022-08-25T03:14:26.717Z,19.89
2022-08-25T03:15:02.183Z,19.91
2022-08-25T03:15:37.660Z,19.84
2022-08-25T03:16:12.323Z,19.86
2022-08-25T03:16:47.249Z,19.93
2022-08-25T03:17:22.140Z,19.94
2022-08-25T03:17:59.916Z,19.91
2022-08-25T03:18:34.317Z,19.89
2022-08-25T03:19:08.320Z,19.95
2022-08-25T03:19:42.119Z,19.92
2022-08-25T03:20:17.916Z,19.91
2022-08-25T03:20:52.135Z,19.85
2022-08-25T03:21:27.728Z,19.81
2022-08-25T03:21:59.714Z,19.79
2022-08-25T03:22:34.292Z,19.79
2022-08-25T03:23:08.139Z,19.74
2022-08-25T03:23:44.320Z,19.74
2022-08-25T03:24:18.722Z,19.67
2022-08-25T03:24:50.678Z,19.74
2022-08-25T03:25:41.522Z,19.72
2022-08-25T03:26:33.915Z,19.73
2022-08-25T03:27:09.719Z,19.71
2022-08-25T03:27:46.721Z,19.49
2022-08-25T03:28:21.715Z,19.44
2022-08-25T03:29:08.717Z,19.50
2022-08-25T03:29:44.318Z,19.48
2022-08-25T03:30:21.120Z,19.39
2022-08-25T03:30:57.183Z,19.33
2022-08-25T03:31:34.366Z,19.33
2022-08-25T03:32:09.956Z,19.33
2022-08-25T03:32:44.517Z,19.34
2022-08-25T03:33:20.117Z,19.38
2022-08-25T03:33:55.318Z,19.38
2022-08-25T03:34:28.439Z,19.32
2022-08-25T03:35:02.782Z,19.35
2022-08-25T03:35:37.315Z,19.38
2022-08-25T03:36:14.116Z,19.35
2022-08-25T03:36:50.518Z,19.32
2022-08-25T03:37:26.117Z,19.27
2022-08-25T03:38:03.637Z,19.31
2022-08-25T03:38:40.394Z,19.28
2022-08-25T03:39:16.116Z,19.23
2022-08-25T03:39:53.153Z,19.21
2022-08-25T03:40:27.761Z,19.16
2022-08-25T03:41:02.518Z,19.18
2022-08-25T03:41:34.625Z,19.12
2022-08-25T03:42:12.730Z,19.11
2022-08-25T03:42:46.813Z,19.04
2022-08-25T03:43:20.917Z,18.99
2022-08-25T03:43:55.768Z,19.01
2022-08-25T03:44:29.924Z,18.98
2022-08-25T03:45:06.489Z,18.94
2022-08-25T03:45:44.370Z,18.93
2022-08-25T03:46:20.454Z,18.88
2022-08-25T03:46:55.144Z,18.53
2022-08-25T03:47:32.117Z,18.69
2022-08-25T03:48:06.457Z,18.69
2022-08-25T03:48:41.721Z,18.69
2022-08-25T03:49:23.922Z,18.65
2022-08-25T03:49:59.609Z,18.66
2022-08-25T03:50:34.123Z,18.59
2022-08-25T03:51:08.717Z,18.57
2022-08-25T03:51:48.916Z,18.54
2022-08-25T03:52:20.473Z,18.52
2022-08-25T03:52:56.603Z,18.47
2022-08-25T03:53:30.716Z,18.40
2022-08-25T03:54:05.357Z,18.37
2022-08-25T03:54:40.916Z,18.39
2022-08-25T03:55:16.918Z,18.34
2022-08-25T03:55:52.287Z,18.27
2022-08-25T03:56:29.321Z,18.19
2022-08-25T03:57:05.316Z,18.13
2022-08-25T03:57:38.179Z,18.06
2022-08-25T03:58:12.116Z,18.06
2022-08-25T03:58:48.115Z,18.00
2022-08-25T03:59:22.079Z,17.94
2022-08-25T03:59:57.122Z,17.90
2022-08-25T04:00:32.854Z,17.88
2022-08-25T04:01:06.606Z,17.92
2022-08-25T04:01:42.347Z,17.91
2022-08-25T04:02:15.692Z,17.69
2022-08-25T04:02:48.316Z,17.47
2022-08-25T04:03:23.120Z,17.54
2022-08-25T04:03:55.706Z,17.43
2022-08-25T04:04:30.115Z,17.39
2022-08-25T04:05:03.854Z,17.26
2022-08-25T04:05:35.678Z,17.23
2022-08-25T04:06:09.991Z,17.16
2022-08-25T04:06:44.124Z,17.04
2022-08-25T04:07:19.717Z,17.18
2022-08-25T04:07:54.303Z,17.28
2022-08-25T04:08:28.914Z,17.21
2022-08-25T04:09:01.530Z,17.13
2022-08-25T04:09:36.981Z,17.06
2022-08-25T04:10:14.470Z,16.95
2022-08-25T04:10:49.146Z,17.00
2022-08-25T04:11:22.450Z,16.98
2022-08-25T04:11:53.971Z,16.97
2022-08-25T04:12:25.536Z,17.04
2022-08-25T04:13:00.916Z,17.11
2022-08-25T04:13:33.327Z,17.14
2022-08-25T04:14:07.322Z,17.15
2022-08-25T04:14:38.921Z,17.02
2022-08-25T04:15:13.071Z,17.09
2022-08-25T04:15:45.959Z,16.95
2022-08-25T04:16:24.776Z,17.11
2022-08-25T04:17:00.413Z,17.28
2022-08-25T04:17:32.762Z,17.34
2022-08-25T04:18:04.839Z,17.36
2022-08-25T04:18:40.319Z,17.39
2022-08-25T04:19:14.722Z,17.46
2022-08-25T04:19:48.866Z,17.49
2022-08-25T04:20:20.471Z,17.50
2022-08-25T04:20:58.121Z,17.51
2022-08-25T04:21:32.322Z,17.57
2022-08-25T04:22:07.115Z,17.54
2022-08-25T04:22:40.914Z,17.55
2022-08-25T04:23:18.904Z,17.59
2022-08-25T04:23:57.514Z,17.60
2022-08-25T04:24:31.665Z,17.64
2022-08-25T04:25:05.714Z,17.61
2022-08-25T04:25:42.296Z,17.61
2022-08-25T04:26:20.213Z,17.64
2022-08-25T04:26:55.515Z,17.52
2022-08-25T04:27:30.514Z,17.83
2022-08-25T04:28:02.802Z,17.88
2022-08-25T04:28:35.714Z,17.94
2022-08-25T04:29:10.697Z,17.97
2022-08-25T04:29:45.622Z,17.95
2022-08-25T04:30:21.715Z,18.01
2022-08-25T04:30:57.115Z,18.08
2022-08-25T04:31:33.162Z,18.22
2022-08-25T04:32:07.946Z,18.21
2022-08-25T04:32:41.821Z,18.23
2022-08-25T04:33:13.654Z,18.25
2022-08-25T04:33:46.599Z,18.26
2022-08-25T04:34:30.722Z,18.13
2022-08-25T04:35:06.316Z,17.94
2022-08-25T04:35:39.163Z,18.07
2022-08-25T04:36:14.920Z,18.15
2022-08-25T04:36:54.440Z,18.28
2022-08-25T04:37:28.317Z,18.38
2022-08-25T04:38:02.834Z,18.35
2022-08-25T04:38:38.321Z,18.36
2022-08-25T04:39:10.526Z,18.35
2022-08-25T04:39:45.800Z,18.34
2022-08-25T04:40:18.185Z,18.31
2022-08-25T04:41:02.280Z,18.31
2022-08-25T04:41:36.922Z,18.32
2022-08-25T04:42:11.514Z,18.28
2022-08-25T04:42:48.104Z,18.30
2022-08-25T04:43:22.723Z,18.28
2022-08-25T04:43:58.872Z,18.26
2022-08-25T04:44:34.513Z,18.19
2022-08-25T04:45:09.157Z,18.06
2022-08-25T04:45:44.014Z,18.09
2022-08-25T04:46:20.794Z,18.02
2022-08-25T04:46:53.724Z,17.98
2022-08-25T04:47:27.722Z,18.04
2022-08-25T04:48:03.590Z,17.90
2022-08-25T04:48:36.183Z,17.84
2022-08-25T04:49:10.314Z,17.78
2022-08-25T04:49:44.381Z,17.69
2022-08-25T04:50:18.520Z,17.69
2022-08-25T04:50:52.714Z,17.61
2022-08-25T04:51:31.719Z,17.76
2022-08-25T04:52:07.788Z,17.72
2022-08-25T04:52:51.714Z,17.65
2022-08-25T04:53:26.916Z,17.49
2022-08-25T04:54:02.722Z,17.34
2022-08-25T04:54:39.067Z,17.41
2022-08-25T04:55:14.597Z,17.52
2022-08-25T04:55:52.062Z,17.47
2022-08-25T04:56:28.251Z,17.49
2022-08-25T04:57:01.222Z,17.29
2022-08-25T04:57:37.461Z,17.50
2022-08-25T04:58:14.716Z,17.59
2022-08-25T04:58:50.316Z,17.59
2022-08-25T04:59:25.916Z,17.63
2022-08-25T05:00:06.914Z,17.65
2022-08-25T05:00:42.010Z,17.60
2022-08-25T05:01:17.601Z,17.74
2022-08-25T05:01:55.697Z,17.83
2022-08-25T05:02:30.514Z,18.04
2022-08-25T05:03:45.824Z,17.98
2022-08-25T05:04:28.343Z,18.02
2022-08-25T05:05:05.113Z,18.01
2022-08-25T05:05:40.196Z,18.08
2022-08-25T05:06:16.041Z,18.15
2022-08-25T05:06:47.942Z,18.17
2022-08-25T05:07:24.117Z,18.18
2022-08-25T05:07:59.829Z,18.25
2022-08-25T05:08:33.196Z,18.21
2022-08-25T05:09:07.931Z,18.35
2022-08-25T05:09:43.345Z,18.37
2022-08-25T05:10:17.658Z,18.36
2022-08-25T05:10:51.026Z,18.42
2022-08-25T05:11:25.537Z,18.47
2022-08-25T05:11:57.631Z,18.51
2022-08-25T05:12:33.043Z,18.55
2022-08-25T05:13:08.515Z,18.56
2022-08-25T05:13:43.916Z,18.56
2022-08-25T05:14:26.958Z,18.67
2022-08-25T05:15:21.323Z,18.70
2022-08-25T05:16:00.187Z,18.71
2022-08-25T05:18:40.916Z,19.06
2022-08-25T05:20:46.160Z,18.98
2022-08-25T05:21:22.717Z,18.97
2022-08-25T05:21:58.379Z,19.02
2022-08-25T05:22:34.917Z,19.03
2022-08-25T05:23:09.719Z,19.00
2022-08-25T05:23:45.315Z,19.00
2022-08-25T05:24:21.717Z,18.96
2022-08-25T05:24:57.115Z,18.98
2022-08-25T05:25:32.716Z,19.01
2022-08-25T05:26:27.918Z,18.80
2022-08-25T05:27:04.514Z,18.82
2022-08-25T05:27:40.117Z,18.94
2022-08-25T05:28:18.462Z,18.97
2022-08-25T05:31:04.035Z,19.12
2022-08-25T05:31:43.113Z,19.12
2022-08-25T05:32:20.115Z,19.17
2022-08-25T05:33:07.715Z,19.17
2022-08-25T05:33:44.119Z,19.37
2022-08-25T05:34:18.384Z,19.39
2022-08-25T05:34:49.858Z,19.48
2022-08-25T05:35:22.561Z,19.53
2022-08-25T05:35:54.162Z,19.64
2022-08-25T05:36:26.842Z,19.64
2022-08-25T05:37:00.209Z,19.66
2022-08-25T05:37:31.776Z,19.58
2022-08-25T05:38:04.310Z,19.57
2022-08-25T05:38:36.232Z,19.69
2022-08-25T05:39:07.701Z,19.70
2022-08-25T05:39:39.142Z,19.91
2022-08-25T05:40:10.744Z,19.91
2022-08-25T05:40:42.380Z,19.86
2022-08-25T05:41:16.177Z,19.92
2022-08-25T05:41:47.608Z,19.97
2022-08-25T05:42:19.343Z,20.03
2022-08-25T05:42:51.066Z,20.03
2022-08-25T05:43:22.497Z,20.15
2022-08-25T05:43:54.068Z,20.11
2022-08-25T05:44:25.603Z,20.18
2022-08-25T05:44:57.177Z,20.25
2022-08-25T05:45:28.708Z,20.28
2022-08-25T05:46:00.466Z,20.24
2022-08-25T05:46:31.996Z,20.31
2022-08-25T05:47:03.576Z,20.32
2022-08-25T05:47:35.028Z,20.41
2022-08-25T05:48:06.841Z,20.50
2022-08-25T05:48:38.642Z,20.52
2022-08-25T05:49:10.157Z,20.72
2022-08-25T05:49:41.633Z,20.97
2022-08-25T05:50:13.126Z,21.37
2022-08-25T05:50:51.147Z,21.88
2022-08-25T05:51:22.686Z,22.41
2022-08-25T05:51:54.240Z,22.78
2022-08-25T05:52:26.862Z,23.00
2022-08-25T05:52:58.320Z,23.40
2022-08-25T05:53:31.077Z,23.60
2022-08-25T05:54:05.824Z,23.73
2022-08-25T05:54:37.273Z,23.98
2022-08-25T05:55:08.942Z,24.19
2022-08-25T05:55:43.955Z,24.63
2022-08-25T05:56:15.657Z,25.07
2022-08-25T05:56:47.463Z,25.16
2022-08-25T05:57:18.901Z,25.27
2022-08-25T05:57:50.377Z,25.58
2022-08-25T05:58:22.228Z,25.44
2022-08-25T05:58:54.367Z,25.43
2022-08-25T05:59:26.066Z,25.21
2022-08-25T05:59:57.507Z,25.10
2022-08-25T06:00:28.949Z,25.05
2022-08-25T06:01:23.690Z,25.32
2022-08-25T06:02:13.523Z,25.57
2022-08-25T06:02:46.454Z,26.35
2022-08-25T06:03:18.090Z,26.12
2022-08-25T06:03:50.987Z,26.19
2022-08-25T06:04:22.691Z,26.26
2022-08-25T06:04:54.204Z,26.60
2022-08-25T06:05:25.624Z,26.73
2022-08-25T06:06:05.712Z,26.86
2022-08-25T06:06:37.134Z,26.44
2022-08-25T06:07:08.716Z,26.72
2022-08-25T06:07:40.461Z,26.51
2022-08-25T06:08:11.921Z,26.75
2022-08-25T06:08:44.530Z,26.51
2022-08-25T06:09:16.025Z,26.95
2022-08-25T06:09:48.990Z,26.99
2022-08-25T06:10:21.982Z,27.40
2022-08-25T06:10:53.456Z,27.32
2022-08-25T06:11:24.901Z,27.74
2022-08-25T06:11:56.622Z,27.40
2022-08-25T06:12:28.065Z,27.43
2022-08-25T06:13:00.684Z,27.82
2022-08-25T06:13:32.700Z,28.24
2022-08-25T06:14:04.784Z,28.44
2022-08-25T06:14:36.335Z,28.63
2022-08-25T06:15:08.915Z,28.89
2022-08-25T06:15:40.514Z,29.05
2022-08-25T06:16:12.147Z,28.81
2022-08-25T06:16:43.665Z,28.69
2022-08-25T06:17:15.621Z,28.79
2022-08-25T06:17:48.102Z,28.93
2022-08-25T06:18:19.536Z,29.05
2022-08-25T06:18:51.026Z,28.87
2022-08-25T06:19:23.520Z,29.22
2022-08-25T06:19:55.475Z,29.04
2022-08-25T06:20:28.739Z,28.87
2022-08-25T06:21:06.872Z,29.07
2022-08-25T06:21:39.656Z,28.72
2022-08-25T06:22:11.293Z,29.06
2022-08-25T06:22:42.891Z,28.40
2022-08-25T06:23:14.867Z,28.18
2022-08-25T06:23:46.382Z,28.92
2022-08-25T06:24:17.842Z,29.10
2022-08-25T06:24:49.333Z,29.53
2022-08-25T06:25:21.942Z,29.63
2022-08-25T06:25:53.825Z,29.21
2022-08-25T06:26:27.723Z,29.47
2022-08-25T06:27:02.917Z,29.58
2022-08-25T06:27:37.922Z,29.75
2022-08-25T06:28:13.363Z,29.47
2022-08-25T06:28:46.288Z,29.14
2022-08-25T06:29:17.821Z,29.54
2022-08-25T06:29:49.375Z,29.81
2022-08-25T06:30:28.939Z,28.90
2022-08-25T06:31:05.531Z,29.29
2022-08-25T06:31:39.755Z,29.60
2022-08-25T06:32:15.847Z,28.87
2022-08-25T06:32:48.523Z,29.56
2022-08-25T06:33:21.720Z,29.73
2022-08-25T06:33:56.323Z,29.71
2022-08-25T06:34:30.520Z,29.77
2022-08-25T06:35:06.718Z,29.23
2022-08-25T06:35:59.103Z,29.53
2022-08-25T06:36:33.320Z,29.26
2022-08-25T06:37:08.718Z,28.80
2022-08-25T06:37:43.673Z,28.37
2022-08-25T06:38:17.717Z,28.11
2022-08-25T06:38:51.347Z,28.11
2022-08-25T06:39:25.918Z,28.49
2022-08-25T06:40:00.533Z,28.30
2022-08-25T06:40:35.209Z,28.16
2022-08-25T06:41:10.118Z,28.25
2022-08-25T06:41:45.517Z,28.82
2022-08-25T06:42:21.718Z,28.81
2022-08-25T06:42:57.318Z,29.00
2022-08-25T06:43:34.323Z,29.19
2022-08-25T06:44:12.518Z,29.23
2022-08-25T06:44:47.318Z,29.51
2022-08-25T06:45:22.554Z,29.70
2022-08-25T06:45:57.523Z,29.79
2022-08-25T06:46:35.923Z,29.69
2022-08-25T06:47:10.577Z,29.95
2022-08-25T06:47:46.106Z,30.07
2022-08-25T06:48:17.596Z,29.41
2022-08-25T06:48:50.718Z,29.72
2022-08-25T06:49:22.788Z,30.18
2022-08-25T06:49:57.328Z,30.44
2022-08-25T06:50:30.927Z,30.55
2022-08-25T06:51:10.169Z,29.96
2022-08-25T06:51:47.922Z,29.94
2022-08-25T06:52:22.318Z,30.03
2022-08-25T06:53:04.138Z,30.04
2022-08-25T06:53:38.522Z,30.55
2022-08-25T06:54:23.919Z,30.20
2022-08-25T06:54:57.720Z,29.81
2022-08-25T06:55:33.318Z,30.26
2022-08-25T06:56:09.068Z,30.66
2022-08-25T06:56:42.919Z,30.70
2022-08-25T06:57:17.918Z,30.52
2022-08-25T06:57:55.705Z,30.23
2022-08-25T06:58:31.322Z,30.19
2022-08-25T06:59:07.119Z,30.40
2022-08-25T06:59:41.920Z,30.37
2022-08-25T07:00:17.918Z,30.84
2022-08-25T07:00:53.173Z,30.96
2022-08-25T07:01:28.753Z,30.44
2022-08-25T07:02:06.854Z,31.06
2022-08-25T07:02:41.967Z,31.25
2022-08-25T07:03:15.968Z,30.71
2022-08-25T07:03:48.783Z,31.09
2022-08-25T07:04:26.322Z,30.87
2022-08-25T07:05:01.921Z,30.69
2022-08-25T07:05:44.664Z,30.25
2022-08-25T07:06:22.100Z,29.81
2022-08-25T07:06:55.318Z,30.22
2022-08-25T07:07:43.651Z,30.95
2022-08-25T07:08:17.952Z,30.85
2022-08-25T07:08:51.518Z,30.73
2022-08-25T07:09:24.531Z,30.21
2022-08-25T07:09:59.519Z,31.14
2022-08-25T07:10:33.918Z,31.57
2022-08-25T07:11:16.718Z,31.64
2022-08-25T07:11:52.132Z,31.62
2022-08-25T07:12:29.805Z,31.38
2022-08-25T07:13:03.929Z,30.90
2022-08-25T07:13:37.331Z,31.23
2022-08-25T07:14:13.528Z,31.38
2022-08-25T07:15:03.610Z,31.57
2022-08-25T07:15:43.130Z,31.88
2022-08-25T07:16:21.409Z,32.06
2022-08-25T07:16:55.928Z,32.18
2022-08-25T07:17:31.929Z,31.96
2022-08-25T07:18:06.261Z,32.03
2022-08-25T07:18:42.328Z,31.59
2022-08-25T07:19:22.121Z,31.14
2022-08-25T07:19:57.647Z,31.11
2022-08-25T07:20:32.729Z,31.36
2022-08-25T07:21:08.834Z,31.15
2022-08-25T07:21:43.933Z,31.08
2022-08-25T07:22:19.002Z,30.69
2022-08-25T07:22:53.931Z,31.08
2022-08-25T07:23:28.330Z,31.39
2022-08-25T07:24:01.623Z,31.67
2022-08-25T07:24:33.729Z,31.38
2022-08-25T07:25:07.734Z,31.41
2022-08-25T07:25:42.328Z,31.95
2022-08-25T07:26:36.852Z,32.11
2022-08-25T07:27:09.672Z,32.23
2022-08-25T07:27:45.294Z,32.70
2022-08-25T07:28:21.529Z,32.99
2022-08-25T07:28:56.128Z,33.37
2022-08-25T07:29:31.874Z,33.07
2022-08-25T07:30:08.129Z,33.59
2022-08-25T07:30:42.956Z,33.68
2022-08-25T07:31:18.196Z,33.59
2022-08-25T07:31:52.409Z,33.37
2022-08-25T07:32:26.500Z,33.37
2022-08-25T07:32:57.965Z,33.21
2022-08-25T07:33:31.742Z,33.52
2022-08-25T07:34:30.728Z,33.63
2022-08-25T07:35:20.928Z,33.45
2022-08-25T07:36:01.134Z,33.01
2022-08-25T07:36:37.104Z,33.15
2022-08-25T07:37:23.787Z,33.34
2022-08-25T07:38:12.301Z,32.83
2022-08-25T07:38:49.329Z,32.47
2022-08-25T07:39:29.119Z,32.50
2022-08-25T07:40:05.762Z,31.57
2022-08-25T07:40:43.016Z,31.22
2022-08-25T07:41:18.735Z,31.48
2022-08-25T07:41:53.534Z,31.64